Time;durP1;ratioP1;P1;durP2;ratioP2;P2;SDS_P1;SDS_P2;PMS_P1;PMS_P2;Temp;Humidity;BMP_temperature;BMP_pressure;BME280_temperature;BME280_humidity;BME280_pressure;Samples;Min_cycle;Max_cycle;Signal;HPM_P1;HPM_P2
2022/08/14 00:01:10;;;;;;;0.40;0.30;;;21.10;52.30;;;;;;5048735;28;20794;-74
2022/08/14 00:03:37;;;;;;;0.40;0.30;;;21.00;52.40;;;;;;5051203;28;20381;-74
2022/08/14 00:06:03;;;;;;;0.40;0.20;;;21.00;52.00;;;;;;5039213;28;20427;-74
2022/08/14 00:08:30;;;;;;;0.40;0.30;;;21.00;51.90;;;;;;5051348;28;20384;-73
2022/08/14 00:10:56;;;;;;;0.40;0.22;;;21.10;52.40;;;;;;5040749;28;20411;-74
2022/08/14 00:13:27;;;;;;;0.40;0.20;;;21.00;52.80;;;;;;5068324;22;20434;-71
2022/08/14 00:15:54;;;;;;;0.50;0.40;;;20.80;52.70;;;;;;5030219;28;20399;-70
2022/08/14 00:18:23;;;;;;;0.50;0.30;;;20.70;53.10;;;;;;5034213;28;20458;-71
2022/08/14 00:20:49;;;;;;;0.60;0.50;;;20.70;53.70;;;;;;5041498;28;20389;-71
2022/08/14 00:23:16;;;;;;;0.40;0.30;;;20.80;53.50;;;;;;5040207;28;20484;-71
2022/08/14 00:25:45;;;;;;;0.40;0.30;;;20.80;53.60;;;;;;5044009;28;20386;-72
2022/08/14 00:28:12;;;;;;;0.40;0.30;;;20.80;54.20;;;;;;5038093;28;20402;-72
2022/08/14 00:30:38;;;;;;;0.50;0.30;;;20.80;54.50;;;;;;5050690;28;20385;-72
2022/08/14 00:33:03;;;;;;;0.40;0.30;;;20.70;54.60;;;;;;5035109;28;20443;-68
2022/08/14 00:35:30;;;;;;;0.40;0.30;;;20.70;54.20;;;;;;5037397;28;20407;-68
2022/08/14 00:37:56;;;;;;;0.40;0.30;;;20.70;54.70;;;;;;5038422;28;20409;-69
2022/08/14 00:40:21;;;;;;;0.40;0.20;;;20.70;54.90;;;;;;5039349;28;20407;-68
2022/08/14 00:42:47;;;;;;;0.40;0.30;;;20.60;55.70;;;;;;5037526;28;20421;-68
2022/08/14 00:45:14;;;;;;;0.40;0.30;;;20.60;55.30;;;;;;5033759;28;20414;-68
2022/08/14 00:47:42;;;;;;;0.40;0.30;;;20.60;56.10;;;;;;5042028;28;20429;-68
2022/08/14 00:50:10;;;;;;;0.45;0.30;;;20.50;56.60;;;;;;5050641;28;20755;-69
2022/08/14 00:52:37;;;;;;;0.40;0.30;;;20.40;56.70;;;;;;5050227;28;20385;-69
2022/08/14 00:55:06;;;;;;;0.40;0.30;;;20.40;56.00;;;;;;5039661;28;20415;-68
2022/08/14 00:57:33;;;;;;;0.40;0.30;;;20.50;56.10;;;;;;5032678;28;20482;-69
2022/08/14 00:59:59;;;;;;;0.40;0.30;;;20.40;56.10;;;;;;5038434;28;20390;-68
2022/08/14 01:02:25;;;;;;;0.40;0.20;;;20.40;56.70;;;;;;5049390;28;20591;-68
2022/08/14 01:04:53;;;;;;;0.40;0.30;;;20.30;57.60;;;;;;5041899;28;20413;-68
2022/08/14 01:07:21;;;;;;;0.40;0.28;;;20.20;58.00;;;;;;5040407;28;20426;-69
2022/08/14 01:09:53;;;;;;;0.40;0.30;;;20.10;57.70;;;;;;5036626;28;20418;-69
2022/08/14 01:12:20;;;;;;;0.40;0.20;;;20.00;58.10;;;;;;5040009;28;20386;-68
2022/08/14 01:14:54;;;;;;;0.40;0.30;;;20.00;58.40;;;;;;5039680;28;20416;-69
2022/08/14 01:17:20;;;;;;;0.40;0.20;;;20.00;58.10;;;;;;5038137;28;20499;-69
2022/08/14 01:22:30;;;;;;;0.40;0.20;;;19.80;58.40;;;;;;5049869;28;20403;-68
2022/08/14 01:24:56;;;;;;;0.40;0.30;;;19.80;58.60;;;;;;5048332;28;20401;-69
2022/08/14 01:27:23;;;;;;;0.40;0.30;;;19.70;59.10;;;;;;5033635;28;20403;-68
2022/08/14 01:30:05;;;;;;;0.40;0.30;;;19.80;59.50;;;;;;5040251;28;20894;-68
2022/08/14 01:32:32;;;;;;;0.40;0.30;;;19.90;59.30;;;;;;5021682;28;20391;-68
2022/08/14 01:34:58;;;;;;;0.40;0.20;;;19.80;59.80;;;;;;5036128;28;20409;-68
2022/08/14 01:37:24;;;;;;;0.40;0.30;;;19.70;60.40;;;;;;5035547;28;20434;-67
2022/08/14 01:39:50;;;;;;;0.40;0.20;;;19.70;60.10;;;;;;5030380;28;20431;-68
2022/08/14 01:42:17;;;;;;;0.50;0.30;;;19.60;60.10;;;;;;5039482;28;20419;-69
2022/08/14 01:44:43;;;;;;;0.50;0.50;;;19.50;61.20;;;;;;5038979;28;20444;-69
2022/08/14 01:47:12;;;;;;;0.40;0.20;;;19.50;61.50;;;;;;5035230;28;20411;-68
2022/08/14 01:49:39;;;;;;;0.40;0.30;;;19.50;61.40;;;;;;5041485;28;20393;-69
2022/08/14 01:52:05;;;;;;;0.50;0.30;;;19.50;61.70;;;;;;5040073;28;20753;-68
2022/08/14 01:54:30;;;;;;;0.40;0.30;;;19.50;62.50;;;;;;5033075;28;20381;-69
2022/08/14 01:56:57;;;;;;;0.40;0.30;;;19.40;62.20;;;;;;5040983;28;20469;-69
2022/08/14 01:59:33;;;;;;;0.40;0.30;;;19.20;63.40;;;;;;5036917;28;20420;-68
2022/08/14 02:02:11;;;;;;;0.40;0.30;;;19.20;63.90;;;;;;5043241;28;20484;-69
2022/08/14 02:04:37;;;;;;;0.40;0.20;;;19.30;65.30;;;;;;5033143;28;20410;-68
2022/08/14 02:07:04;;;;;;;0.40;0.27;;;19.20;64.90;;;;;;5042288;28;20884;-68
2022/08/14 02:09:34;;;;;;;0.40;0.30;;;19.30;64.60;;;;;;5043976;28;20793;-68
2022/08/14 02:12:00;;;;;;;0.50;0.40;;;19.30;64.30;;;;;;5038578;28;20430;-68
2022/08/14 02:14:26;;;;;;;0.40;0.30;;;19.40;65.00;;;;;;5043981;28;20409;-69
2022/08/14 02:16:52;;;;;;;0.40;0.40;;;19.30;64.40;;;;;;5053324;28;20397;-68
2022/08/14 02:19:22;;;;;;;0.50;0.40;;;19.40;65.00;;;;;;5043875;28;20410;-68
2022/08/14 02:21:53;;;;;;;0.40;0.30;;;19.40;65.00;;;;;;5039153;28;20422;-68
2022/08/14 02:24:22;;;;;;;0.40;0.30;;;19.20;66.10;;;;;;5042690;28;20418;-69
2022/08/14 02:26:48;;;;;;;0.60;0.40;;;19.10;66.10;;;;;;5042637;28;20516;-68
2022/08/14 02:29:18;;;;;;;0.40;0.30;;;19.00;66.10;;;;;;5041223;28;20403;-69
2022/08/14 02:31:48;;;;;;;0.40;0.30;;;19.20;65.70;;;;;;5048154;28;20383;-67
2022/08/14 02:34:18;;;;;;;0.40;0.30;;;19.20;65.00;;;;;;5041954;28;20806;-68
2022/08/14 02:36:44;;;;;;;0.40;0.30;;;19.30;65.00;;;;;;5037366;28;20879;-69
2022/08/14 02:39:11;;;;;;;0.50;0.40;;;19.30;65.90;;;;;;5040660;28;20411;-69
2022/08/14 02:41:37;;;;;;;0.40;0.30;;;19.30;64.60;;;;;;5044459;28;20480;-67
2022/08/14 02:44:04;;;;;;;0.40;0.30;;;19.20;65.70;;;;;;5042937;28;20504;-69
2022/08/14 02:46:30;;;;;;;0.40;0.20;;;19.20;65.90;;;;;;5034132;28;20716;-69
2022/08/14 02:48:57;;;;;;;0.40;0.20;;;19.10;64.90;;;;;;5039527;28;20403;-69
2022/08/14 02:51:22;;;;;;;0.40;0.20;;;19.20;65.10;;;;;;5043303;28;20929;-69
2022/08/14 02:53:48;;;;;;;0.40;0.40;;;19.10;65.30;;;;;;5046949;28;20496;-68
2022/08/14 02:56:18;;;;;;;0.40;0.30;;;19.00;66.80;;;;;;5039521;28;20418;-69
2022/08/14 02:58:48;;;;;;;0.40;0.20;;;19.10;67.00;;;;;;5047694;28;20853;-68
2022/08/14 03:01:16;;;;;;;0.40;0.20;;;19.00;66.60;;;;;;5037054;28;20897;-68
2022/08/14 03:03:42;;;;;;;0.40;0.20;;;18.90;67.00;;;;;;5043670;28;20405;-68
2022/08/14 03:06:09;;;;;;;0.40;0.30;;;19.00;66.30;;;;;;5041073;28;20504;-68
2022/08/14 03:08:36;;;;;;;0.40;0.30;;;19.00;66.10;;;;;;5039524;28;20415;-69
2022/08/14 03:11:08;;;;;;;0.40;0.30;;;18.90;66.70;;;;;;5048377;28;20385;-68
2022/08/14 03:13:52;;;;;;;0.40;0.30;;;18.80;66.90;;;;;;5051720;28;20393;-69
2022/08/14 03:16:24;;;;;;;0.40;0.30;;;18.80;68.20;;;;;;5041592;28;20413;-68
2022/08/14 03:18:57;;;;;;;0.40;0.30;;;18.90;66.90;;;;;;5041818;28;20455;-69
2022/08/14 03:21:23;;;;;;;0.40;0.35;;;18.90;67.20;;;;;;5033123;28;20403;-68
2022/08/14 03:23:57;;;;;;;0.40;0.30;;;19.00;66.10;;;;;;5038465;28;20447;-68
2022/08/14 03:26:26;;;;;;;0.40;0.30;;;19.00;67.10;;;;;;5039550;28;20505;-68
2022/08/14 03:28:52;;;;;;;0.40;0.20;;;19.10;66.60;;;;;;5036154;28;20410;-69
2022/08/14 03:31:21;;;;;;;0.40;0.20;;;18.90;66.80;;;;;;5038910;28;20896;-68
2022/08/14 03:33:47;;;;;;;0.40;0.30;;;19.00;67.00;;;;;;5040224;28;20881;-69
2022/08/14 03:36:15;;;;;;;0.40;0.30;;;19.00;67.60;;;;;;5038976;28;20436;-68
2022/08/14 03:38:44;;;;;;;0.60;0.50;;;19.00;66.80;;;;;;5039380;28;20474;-68
2022/08/14 03:41:15;;;;;;;0.40;0.30;;;19.20;66.80;;;;;;5049198;28;20382;-68
2022/08/14 03:43:41;;;;;;;0.40;0.20;;;19.00;67.50;;;;;;5050330;28;20921;-68
2022/08/14 03:46:11;;;;;;;0.40;0.20;;;19.10;68.20;;;;;;5040001;28;20382;-69
2022/08/14 03:48:38;;;;;;;0.40;0.20;;;19.00;66.70;;;;;;5043162;28;20405;-68
2022/08/14 03:51:05;;;;;;;0.40;0.30;;;19.10;67.70;;;;;;5039577;28;20936;-69
2022/08/14 03:53:30;;;;;;;0.40;0.20;;;18.90;68.30;;;;;;5031536;28;20387;-69
2022/08/14 03:55:57;;;;;;;0.40;0.30;;;18.80;69.30;;;;;;5030979;28;20387;-68
2022/08/14 03:58:23;;;;;;;0.50;0.50;;;18.70;69.40;;;;;;5040439;28;20490;-68
2022/08/14 04:00:49;;;;;;;0.40;0.30;;;18.60;70.10;;;;;;5037299;28;21018;-69
2022/08/14 04:03:14;;;;;;;0.40;0.30;;;18.60;72.00;;;;;;5040673;28;20383;-69
2022/08/14 04:05:41;;;;;;;0.40;0.40;;;18.50;70.40;;;;;;5041808;28;20467;-68
2022/08/14 04:08:08;;;;;;;0.40;0.20;;;18.50;71.20;;;;;;5036838;28;20449;-69
2022/08/14 04:10:33;;;;;;;0.40;0.30;;;18.50;68.80;;;;;;5040147;28;20427;-69
2022/08/14 04:13:01;;;;;;;0.50;0.50;;;18.50;69.30;;;;;;5037469;28;20424;-68
2022/08/14 04:15:27;;;;;;;0.40;0.30;;;18.40;71.00;;;;;;5043121;28;20417;-68
2022/08/14 04:17:53;;;;;;;0.40;0.30;;;18.30;71.90;;;;;;5051415;28;20455;-68
2022/08/14 04:20:20;;;;;;;0.40;0.30;;;18.30;70.70;;;;;;5039081;28;20472;-68
2022/08/14 04:22:49;;;;;;;0.40;0.30;;;18.30;71.30;;;;;;5039088;28;20421;-68
2022/08/14 04:25:15;;;;;;;0.73;0.65;;;18.30;71.20;;;;;;5040462;28;20409;-68
2022/08/14 04:27:40;;;;;;;0.40;0.30;;;18.10;72.00;;;;;;5034254;28;20398;-68
2022/08/14 04:30:06;;;;;;;0.40;0.30;;;18.10;74.20;;;;;;5040967;28;20898;-68
2022/08/14 04:32:32;;;;;;;0.40;0.30;;;18.00;73.50;;;;;;5033520;28;20981;-67
2022/08/14 04:34:59;;;;;;;0.40;0.30;;;17.90;74.50;;;;;;5035492;28;20790;-68
2022/08/14 04:45:39;;;;;;;0.50;0.30;;;17.60;76.50;;;;;;5032572;28;20467;-68
2022/08/14 04:48:16;;;;;;;0.50;0.40;;;17.70;76.90;;;;;;5041429;28;20756;-68
2022/08/14 04:50:45;;;;;;;0.40;0.30;;;17.60;80.60;;;;;;5033354;28;20411;-69
2022/08/14 04:53:17;;;;;;;0.50;0.40;;;17.70;80.20;;;;;;5039263;28;20383;-68
2022/08/14 04:55:48;;;;;;;0.40;0.30;;;17.70;81.00;;;;;;5043469;28;20990;-68
2022/08/14 04:58:23;;;;;;;0.40;0.20;;;17.60;80.30;;;;;;5039669;28;20825;-68
2022/08/14 05:00:50;;;;;;;0.40;0.30;;;17.50;81.30;;;;;;5039042;28;20420;-69
2022/08/14 05:03:25;;;;;;;1.10;1.00;;;17.60;78.90;;;;;;5036853;28;20442;-69
2022/08/14 05:05:52;;;;;;;0.70;0.70;;;17.60;78.70;;;;;;5035127;28;20415;-68
2022/08/14 05:08:18;;;;;;;0.40;0.30;;;17.60;78.90;;;;;;5035798;28;20437;-68
2022/08/14 05:10:50;;;;;;;0.40;0.30;;;17.60;78.10;;;;;;5035014;28;20449;-68
2022/08/14 05:13:17;;;;;;;0.40;0.20;;;17.60;79.80;;;;;;5031353;28;20411;-68
2022/08/14 05:15:46;;;;;;;0.77;0.57;;;17.60;77.90;;;;;;5041272;28;20405;-68
2022/08/14 05:18:18;;;;;;;0.40;0.20;;;17.50;79.20;;;;;;5032600;28;20418;-70
2022/08/14 05:20:47;;;;;;;0.40;0.30;;;17.40;79.70;;;;;;5037840;28;20407;-69
2022/08/14 05:23:17;;;;;;;0.40;0.20;;;17.60;81.50;;;;;;5042309;28;20436;-68
2022/08/14 05:25:44;;;;;;;0.40;0.30;;;17.50;81.90;;;;;;5037017;28;20415;-69
2022/08/14 05:28:17;;;;;;;0.40;0.30;;;17.60;81.20;;;;;;5038098;28;20414;-68
2022/08/14 05:30:45;;;;;;;1.52;0.68;;;17.60;80.30;;;;;;5036837;28;20411;-69
2022/08/14 05:33:12;;;;;;;0.40;0.30;;;17.50;81.50;;;;;;5028972;28;20413;-69
2022/08/14 05:35:38;;;;;;;0.40;0.30;;;17.60;82.00;;;;;;5040809;28;20773;-68
2022/08/14 05:38:14;;;;;;;0.40;0.30;;;17.80;83.00;;;;;;5046094;28;20472;-69
2022/08/14 05:40:40;;;;;;;0.40;0.30;;;17.60;81.90;;;;;;5054517;28;20385;-69
2022/08/14 05:43:06;;;;;;;0.40;0.30;;;17.60;83.00;;;;;;5036700;28;20516;-68
2022/08/14 05:45:34;;;;;;;0.40;0.20;;;17.50;85.20;;;;;;5040021;28;20777;-69
2022/08/14 05:48:00;;;;;;;0.40;0.30;;;17.60;85.20;;;;;;5042641;28;20837;-69
2022/08/14 05:50:26;;;;;;;0.40;0.30;;;17.60;85.80;;;;;;5044210;28;20543;-68
2022/08/14 05:52:53;;;;;;;0.40;0.30;;;17.60;87.60;;;;;;5043344;28;20906;-69
2022/08/14 05:55:20;;;;;;;0.40;0.20;;;17.80;87.90;;;;;;5044282;28;20426;-68
2022/08/14 05:57:57;;;;;;;0.40;0.30;;;18.00;87.90;;;;;;5047317;28;20419;-69
2022/08/14 06:00:26;;;;;;;0.40;0.30;;;18.10;90.00;;;;;;5035040;28;20945;-69
2022/08/14 06:02:52;;;;;;;0.40;0.30;;;18.10;91.00;;;;;;5043981;28;20986;-68
2022/08/14 06:05:18;;;;;;;0.50;0.50;;;18.20;90.60;;;;;;5040855;28;20542;-69
2022/08/14 06:07:43;;;;;;;0.47;0.33;;;18.30;86.60;;;;;;5047812;28;20393;-69
2022/08/14 06:10:09;;;;;;;0.40;0.30;;;18.40;87.70;;;;;;5053781;28;20389;-69
2022/08/14 06:12:36;;;;;;;0.70;0.70;;;18.60;88.30;;;;;;5053612;28;20385;-70
2022/08/14 06:15:02;;;;;;;0.40;0.20;;;18.80;87.80;;;;;;5060476;22;20801;-73
2022/08/14 06:17:28;;;;;;;0.40;0.30;;;19.00;86.30;;;;;;5033474;28;20428;-73
2022/08/14 06:19:54;;;;;;;0.50;0.30;;;19.10;86.00;;;;;;5032916;28;20387;-73
2022/08/14 06:22:19;;;;;;;0.50;0.30;;;19.30;85.80;;;;;;5031936;28;20474;-73
2022/08/14 06:24:45;;;;;;;0.40;0.30;;;19.40;84.10;;;;;;5032336;28;20449;-73
2022/08/14 06:27:10;;;;;;;0.50;0.50;;;19.50;81.90;;;;;;5032345;28;20387;-74
2022/08/14 06:29:37;;;;;;;0.40;0.20;;;19.70;81.60;;;;;;5032426;28;20382;-73
2022/08/14 06:32:03;;;;;;;0.40;0.30;;;19.80;80.50;;;;;;5031538;28;20387;-73
2022/08/14 06:34:29;;;;;;;0.40;0.30;;;19.80;83.80;;;;;;5033267;28;20391;-73
2022/08/14 06:36:55;;;;;;;0.40;0.30;;;19.90;79.20;;;;;;5033563;28;20398;-73
2022/08/14 06:39:22;;;;;;;0.40;0.30;;;20.00;79.60;;;;;;5033563;28;20742;-73
2022/08/14 06:41:48;;;;;;;0.40;0.30;;;20.00;78.10;;;;;;5033475;28;20871;-74
2022/08/14 06:44:13;;;;;;;0.40;0.30;;;20.10;76.70;;;;;;5032854;28;20494;-72
2022/08/14 06:46:39;;;;;;;0.40;0.20;;;20.30;77.10;;;;;;5031562;28;20439;-74
2022/08/14 06:49:05;;;;;;;0.40;0.20;;;20.30;75.20;;;;;;5033232;28;20422;-73
2022/08/14 06:51:30;;;;;;;0.40;0.20;;;20.50;70.40;;;;;;5032053;28;20958;-73
2022/08/14 06:53:56;;;;;;;0.40;0.30;;;20.90;67.10;;;;;;5031349;28;20432;-73
2022/08/14 06:56:22;;;;;;;0.40;0.30;;;21.10;66.70;;;;;;5030522;28;20761;-73
2022/08/14 06:58:48;;;;;;;0.40;0.30;;;21.20;66.70;;;;;;5051155;28;20786;-73
2022/08/14 07:06:42;;;;;;;0.40;0.30;;;21.30;67.30;;;;;;5042852;28;20377;-72
2022/08/14 07:09:11;;;;;;;0.40;0.30;;;21.20;68.10;;;;;;5044427;28;20382;-73
2022/08/14 07:11:37;;;;;;;0.40;0.20;;;21.30;67.10;;;;;;5052896;28;20377;-72
2022/08/14 07:14:03;;;;;;;0.40;0.20;;;21.40;66.10;;;;;;5052090;28;20451;-73
2022/08/14 07:16:29;;;;;;;0.40;0.30;;;21.50;65.30;;;;;;5052820;28;20555;-73
2022/08/14 07:18:55;;;;;;;0.40;0.30;;;21.60;65.40;;;;;;5037223;28;20385;-73
2022/08/14 07:21:20;;;;;;;0.40;0.30;;;21.70;65.20;;;;;;5042889;28;20441;-72
2022/08/14 07:23:46;;;;;;;0.40;0.30;;;21.90;65.00;;;;;;5052225;28;20448;-73
2022/08/14 07:26:12;;;;;;;0.40;0.20;;;21.80;63.90;;;;;;5052597;28;20385;-72
2022/08/14 07:28:39;;;;;;;0.40;0.30;;;21.80;63.60;;;;;;5051164;28;20421;-73
2022/08/14 07:31:08;;;;;;;0.40;0.30;;;21.90;64.50;;;;;;5052527;28;20805;-72
2022/08/14 07:33:40;;;;;;;0.40;0.20;;;21.90;65.00;;;;;;5030756;28;20395;-72
2022/08/14 07:36:09;;;;;;;0.40;0.20;;;22.00;62.30;;;;;;5033096;28;20390;-72
2022/08/14 07:38:34;;;;;;;0.40;0.30;;;22.00;62.20;;;;;;5036460;28;20377;-73
2022/08/14 07:41:00;;;;;;;0.40;0.30;;;22.20;61.50;;;;;;5047267;28;20720;-72
2022/08/14 07:43:26;;;;;;;0.47;0.30;;;22.30;60.70;;;;;;5045112;28;20393;-73
2022/08/14 07:45:52;;;;;;;0.40;0.20;;;22.30;60.20;;;;;;5029459;28;20399;-73
2022/08/14 07:48:17;;;;;;;0.40;0.30;;;22.40;59.90;;;;;;5032361;28;20388;-72
2022/08/14 07:50:44;;;;;;;0.50;0.40;;;22.40;59.70;;;;;;5040678;28;20416;-71
2022/08/14 07:53:13;;;;;;;0.40;0.30;;;22.50;60.00;;;;;;5021691;28;20494;-71
2022/08/14 07:55:40;;;;;;;0.40;0.20;;;22.50;59.90;;;;;;5038937;28;20405;-71
2022/08/14 07:58:05;;;;;;;0.40;0.20;;;22.50;59.80;;;;;;5036757;28;20819;-71
2022/08/14 08:00:32;;;;;;;0.40;0.20;;;22.60;61.20;;;;;;5029626;28;20401;-70
2022/08/14 08:02:58;;;;;;;0.40;0.20;;;22.70;60.60;;;;;;5033609;28;20549;-70
2022/08/14 08:05:24;;;;;;;0.40;0.20;;;22.80;60.10;;;;;;5049483;28;20534;-71
2022/08/14 08:07:51;;;;;;;0.40;0.22;;;22.80;60.00;;;;;;5051722;28;20468;-72
2022/08/14 08:10:30;;;;;;;0.40;0.30;;;22.70;59.20;;;;;;5046369;28;20387;-72
2022/08/14 08:13:03;;;;;;;0.40;0.20;;;22.90;59.00;;;;;;5031183;28;20514;-72
2022/08/14 08:15:31;;;;;;;0.40;0.30;;;23.20;58.70;;;;;;5031002;28;20419;-72
2022/08/14 08:18:01;;;;;;;0.40;0.30;;;23.30;58.90;;;;;;5030721;28;20411;-72
2022/08/14 08:20:27;;;;;;;0.40;0.20;;;23.40;58.30;;;;;;5050411;28;20381;-72
2022/08/14 08:22:57;;;;;;;0.50;0.30;;;23.50;57.80;;;;;;5035158;28;20468;-71
2022/08/14 08:25:25;;;;;;;0.40;0.20;;;23.60;58.10;;;;;;5031035;28;20932;-72
2022/08/14 08:28:14;;;;;;;0.40;0.30;;;23.80;58.10;;;;;;5035626;28;20407;-72
2022/08/14 08:30:42;;;;;;;0.40;0.20;;;23.70;57.70;;;;;;5032353;28;20488;-73
2022/08/14 08:33:09;;;;;;;0.40;0.20;;;23.80;57.80;;;;;;5032276;28;20457;-71
2022/08/14 08:35:37;;;;;;;0.40;0.20;;;23.70;57.40;;;;;;5032458;28;20434;-71
2022/08/14 08:38:09;;;;;;;0.40;0.20;;;23.80;57.40;;;;;;5024493;28;20403;-71
2022/08/14 08:40:38;;;;;;;0.40;0.20;;;23.90;57.00;;;;;;5035757;28;20523;-71
2022/08/14 08:43:05;;;;;;;0.40;0.20;;;23.90;56.80;;;;;;5026898;28;20407;-71
2022/08/14 08:45:33;;;;;;;0.40;0.30;;;23.90;56.90;;;;;;5033869;28;20421;-72
2022/08/14 08:48:01;;;;;;;0.40;0.30;;;23.80;55.90;;;;;;5029332;28;21284;-72
2022/08/14 08:50:36;;;;;;;0.40;0.30;;;23.80;55.90;;;;;;5036485;28;20757;-71
2022/08/14 08:53:04;;;;;;;0.40;0.20;;;24.00;56.30;;;;;;5038284;28;20864;-72
2022/08/14 08:55:33;;;;;;;0.40;0.20;;;23.90;55.30;;;;;;5039481;28;20766;-71
2022/08/14 08:58:04;;;;;;;0.40;0.30;;;23.90;55.00;;;;;;5034620;28;20405;-72
2022/08/14 09:00:33;;;;;;;0.40;0.30;;;23.80;55.20;;;;;;5022364;28;20402;-71
2022/08/14 09:03:01;;;;;;;0.40;0.30;;;24.00;55.40;;;;;;5026369;28;20404;-72
2022/08/14 09:05:28;;;;;;;0.50;0.30;;;24.10;54.80;;;;;;5034613;28;20412;-72
2022/08/14 09:08:07;;;;;;;0.40;0.30;;;24.20;54.30;;;;;;5045346;28;20473;-72
2022/08/14 09:10:32;;;;;;;0.40;0.30;;;24.30;54.30;;;;;;5029526;28;20404;-74
2022/08/14 09:12:59;;;;;;;0.40;0.30;;;24.40;54.90;;;;;;5036595;28;20419;-73
2022/08/14 09:15:26;;;;;;;0.40;0.20;;;24.40;53.30;;;;;;5031872;28;21148;-72
2022/08/14 09:17:51;;;;;;;0.40;0.20;;;24.60;52.50;;;;;;5044450;28;20397;-72
2022/08/14 09:20:17;;;;;;;0.40;0.20;;;24.80;52.10;;;;;;5028213;28;20419;-71
2022/08/14 09:22:44;;;;;;;0.40;0.20;;;24.80;52.20;;;;;;5033260;28;20401;-73
2022/08/14 09:25:10;;;;;;;0.40;0.20;;;24.80;51.10;;;;;;5033922;28;20425;-73
2022/08/14 09:27:37;;;;;;;0.40;0.20;;;24.80;50.40;;;;;;5049954;28;20386;-71
2022/08/14 09:30:08;;;;;;;0.40;0.20;;;24.90;50.70;;;;;;5050190;28;20393;-71
2022/08/14 09:33:01;;;;;;;0.40;0.30;;;25.00;49.90;;;;;;5037935;28;20774;-71
2022/08/14 09:35:42;;;;;;;0.40;0.30;;;25.10;50.20;;;;;;5028482;28;20793;-72
2022/08/14 09:38:14;;;;;;;0.40;0.20;;;25.20;49.30;;;;;;5037547;28;20476;-71
2022/08/14 09:41:04;;;;;;;0.40;0.30;;;25.30;48.50;;;;;;5035754;28;21100;-73
2022/08/14 09:43:35;;;;;;;0.40;0.20;;;25.50;47.70;;;;;;5031697;28;20405;-71
2022/08/14 09:46:06;;;;;;;0.50;0.40;;;25.70;46.30;;;;;;5057519;28;20485;-73
2022/08/14 09:48:32;;;;;;;0.40;0.30;;;25.70;45.30;;;;;;5042222;28;20404;-71
2022/08/14 09:50:59;;;;;;;0.40;0.20;;;25.80;46.00;;;;;;5026783;28;20773;-71
2022/08/14 09:53:57;;;;;;;0.40;0.30;;;25.90;45.40;;;;;;5029963;28;20414;-72
2022/08/14 09:56:22;;;;;;;0.40;0.30;;;26.00;44.90;;;;;;5035470;28;20401;-72
2022/08/14 09:58:48;;;;;;;0.40;0.30;;;26.00;44.60;;;;;;5044304;28;20392;-72
2022/08/14 10:01:16;;;;;;;0.40;0.20;;;25.90;44.50;;;;;;5049905;28;20377;-72
2022/08/14 10:03:55;;;;;;;0.40;0.30;;;26.10;43.60;;;;;;5049726;28;20417;-72
2022/08/14 10:06:26;;;;;;;0.50;0.40;;;26.10;42.10;;;;;;5049340;28;20382;-71
2022/08/14 10:09:03;;;;;;;0.40;0.20;;;26.10;41.60;;;;;;5049917;28;20747;-72
2022/08/14 10:11:37;;;;;;;0.40;0.30;;;26.10;41.10;;;;;;5049934;28;20465;-71
2022/08/14 10:14:17;;;;;;;0.40;0.20;;;26.10;41.70;;;;;;5049173;28;20397;-71
2022/08/14 10:16:46;;;;;;;0.40;0.30;;;26.30;41.20;;;;;;5049146;28;20409;-71
2022/08/14 10:19:14;;;;;;;0.40;0.30;;;26.40;40.30;;;;;;5050021;28;20883;-72
2022/08/14 10:21:42;;;;;;;0.40;0.20;;;26.60;41.60;;;;;;5051766;28;20424;-71
2022/08/14 10:24:23;;;;;;;0.40;0.30;;;26.60;42.30;;;;;;5053110;28;20485;-71
2022/08/14 10:27:00;;;;;;;0.40;0.30;;;26.60;42.90;;;;;;5053132;28;20373;-70
2022/08/14 10:29:37;;;;;;;0.60;0.50;;;26.60;43.00;;;;;;5053388;28;20867;-71
2022/08/14 10:32:03;;;;;;;0.40;0.30;;;27.00;43.30;;;;;;5046087;28;20383;-70
2022/08/14 10:34:34;;;;;;;0.40;0.20;;;27.00;43.00;;;;;;5033129;28;20389;-70
2022/08/14 10:37:11;;;;;;;0.45;0.38;;;27.10;43.80;;;;;;5032344;28;20445;-71
2022/08/14 10:39:38;;;;;;;0.40;0.20;;;27.30;43.70;;;;;;5033396;28;20427;-70
2022/08/14 10:42:10;;;;;;;0.40;0.30;;;27.50;43.20;;;;;;5033182;28;20444;-72
2022/08/14 10:44:48;;;;;;;0.40;0.30;;;27.30;43.10;;;;;;5032491;28;20772;-71
2022/08/14 10:47:17;;;;;;;0.40;0.20;;;27.50;43.30;;;;;;5031074;28;20961;-70
2022/08/14 10:49:58;;;;;;;0.40;0.20;;;27.30;42.70;;;;;;5032422;28;20860;-73
2022/08/14 10:52:33;;;;;;;0.40;0.30;;;27.60;42.70;;;;;;5033131;28;20429;-75
2022/08/14 10:55:12;;;;;;;0.40;0.20;;;27.50;42.00;;;;;;5032886;28;20828;-76
2022/08/14 10:57:53;;;;;;;0.40;0.30;;;27.50;43.10;;;;;;5032896;28;20427;-76
2022/08/14 11:00:25;;;;;;;0.40;0.30;;;27.70;42.00;;;;;;5032747;28;20880;-75
2022/08/14 11:03:00;;;;;;;0.40;0.20;;;27.90;41.80;;;;;;5032526;28;20395;-76
2022/08/14 11:05:39;;;;;;;0.40;0.20;;;28.00;42.20;;;;;;5032646;28;20432;-76
2022/08/14 11:08:05;;;;;;;0.40;0.20;;;28.20;41.60;;;;;;5032518;28;20426;-75
2022/08/14 11:10:42;;;;;;;0.40;0.20;;;28.20;40.40;;;;;;5031032;28;20427;-75
2022/08/14 11:13:13;;;;;;;0.40;0.20;;;28.60;40.40;;;;;;5032308;28;20375;-74
2022/08/14 11:15:39;;;;;;;0.40;0.20;;;28.60;39.50;;;;;;5032495;28;20395;-74
2022/08/14 11:18:05;;;;;;;0.40;0.30;;;28.60;39.80;;;;;;5032472;28;20815;-74
2022/08/14 11:20:31;;;;;;;0.40;0.20;;;28.80;40.10;;;;;;5031956;28;20784;-74
2022/08/14 11:22:59;;;;;;;0.60;0.50;;;29.00;39.30;;;;;;5030799;28;20391;-73
2022/08/14 11:25:30;;;;;;;0.40;0.30;;;28.70;39.20;;;;;;5032091;28;20399;-74
2022/08/14 11:27:56;;;;;;;0.40;0.20;;;28.80;40.80;;;;;;5032675;28;20398;-72
2022/08/14 11:30:26;;;;;;;0.40;0.30;;;28.80;41.00;;;;;;5032627;28;20478;-73
2022/08/14 11:32:53;;;;;;;0.40;0.20;;;28.90;40.30;;;;;;5030633;28;20388;-73
2022/08/14 11:35:25;;;;;;;0.40;0.30;;;28.90;42.60;;;;;;5032380;28;20422;-73
2022/08/14 11:38:01;;;;;;;0.40;0.30;;;29.10;45.50;;;;;;5030869;28;20403;-73
2022/08/14 11:40:33;;;;;;;0.40;0.20;;;29.30;47.90;;;;;;5032477;28;20753;-73
2022/08/14 11:43:00;;;;;;;0.40;0.20;;;29.70;47.20;;;;;;5030539;28;20498;-73
2022/08/14 11:45:33;;;;;;;0.40;0.20;;;30.00;48.40;;;;;;5031960;28;20961;-73
2022/08/14 11:48:18;;;;;;;0.50;0.40;;;30.60;46.60;;;;;;5031854;28;20976;-72
2022/08/14 11:50:45;;;;;;;0.40;0.20;;;30.20;45.80;;;;;;5032039;28;20869;-71
2022/08/14 11:53:19;;;;;;;0.40;0.20;;;30.50;46.40;;;;;;5031452;28;20387;-71
2022/08/14 11:55:45;;;;;;;0.40;0.30;;;29.80;50.10;;;;;;5030380;28;20395;-72
2022/08/14 11:58:11;;;;;;;0.40;0.20;;;29.80;51.20;;;;;;5032459;28;20952;-71
2022/08/14 12:00:57;;;;;;;0.40;0.20;;;30.10;51.00;;;;;;5039452;28;20461;-72
2022/08/14 12:03:33;;;;;;;0.40;0.20;;;30.00;52.60;;;;;;5040227;28;20868;-72
2022/08/14 12:06:10;;;;;;;0.40;0.20;;;30.20;52.30;;;;;;5033845;28;20513;-72
2022/08/14 12:08:37;;;;;;;0.40;0.30;;;30.40;51.60;;;;;;5027149;28;20413;-72
2022/08/14 12:11:05;;;;;;;0.40;0.30;;;30.40;51.70;;;;;;5039647;28;20689;-72
2022/08/14 12:13:31;;;;;;;0.40;0.20;;;30.20;52.90;;;;;;5046139;28;20887;-72
2022/08/14 12:16:06;;;;;;;0.50;0.40;;;30.20;53.10;;;;;;5034578;28;20438;-73
2022/08/14 12:18:35;;;;;;;0.40;0.20;;;30.30;52.80;;;;;;5063170;22;20442;-76
2022/08/14 12:21:18;;;;;;;0.40;0.20;;;30.10;54.00;;;;;;5032615;28;20447;-75
2022/08/14 12:23:58;;;;;;;0.40;0.30;;;29.70;54.80;;;;;;5039118;28;20387;-75
2022/08/14 12:26:24;;;;;;;0.40;0.20;;;29.70;55.10;;;;;;5043878;28;20839;-76
2022/08/14 12:28:50;;;;;;;0.40;0.30;;;29.10;55.50;;;;;;5030574;28;20837;-74
2022/08/14 12:31:19;;;;;;;0.40;0.20;;;29.10;55.90;;;;;;5029709;28;20379;-75
2022/08/14 12:33:58;;;;;;;0.40;0.20;;;28.80;55.80;;;;;;5028573;28;20748;-75
2022/08/14 12:36:29;;;;;;;0.40;0.20;;;29.00;55.60;;;;;;5007042;28;20415;-73
2022/08/14 12:39:15;;;;;;;0.40;0.20;;;29.00;55.60;;;;;;5002531;28;20446;-74
2022/08/14 12:41:51;;;;;;;0.40;0.20;;;29.30;55.40;;;;;;5010822;28;20391;-75
2022/08/14 12:44:27;;;;;;;0.50;0.50;;;29.00;55.30;;;;;;5029688;28;20803;-74
2022/08/14 12:47:02;;;;;;;0.40;0.30;;;29.00;55.40;;;;;;5030854;28;20864;-74
2022/08/14 12:49:27;;;;;;;0.40;0.30;;;29.00;55.20;;;;;;5030716;28;20383;-75
2022/08/14 12:51:58;;;;;;;0.40;0.20;;;28.70;56.20;;;;;;5029329;28;20441;-75
2022/08/14 12:54:24;;;;;;;0.40;0.30;;;28.60;56.30;;;;;;5024828;28;20420;-74
2022/08/14 12:56:49;;;;;;;0.50;0.40;;;28.80;56.00;;;;;;4987859;28;20469;-74
2022/08/14 12:59:15;;;;;;;0.40;0.30;;;28.90;55.80;;;;;;5001866;28;20402;-73
2022/08/14 13:01:44;;;;;;;0.40;0.30;;;29.20;55.50;;;;;;5003867;28;20417;-74
2022/08/14 13:04:13;;;;;;;0.40;0.30;;;29.10;55.10;;;;;;4999901;28;20416;-75
2022/08/14 13:06:44;;;;;;;0.40;0.20;;;28.90;55.70;;;;;;5005130;28;20431;-74
2022/08/14 13:09:12;;;;;;;0.40;0.20;;;28.90;56.20;;;;;;5003265;28;20401;-75
2022/08/14 13:11:43;;;;;;;0.40;0.30;;;29.00;55.40;;;;;;5006946;28;20401;-74
2022/08/14 13:14:14;;;;;;;0.40;0.30;;;28.80;53.50;;;;;;5007356;28;20415;-73